createdAt,value
2019-03-05T00:01:09.381Z,97501.65
2019-03-05T00:03:39.731Z,97495.78
2019-03-05T00:06:10.335Z,97498.12
2019-03-05T00:08:40.794Z,97510.28
2019-03-05T00:11:11.108Z,97497.38
2019-03-05T00:13:41.618Z,97493.28
2019-03-05T00:16:11.833Z,97486.01
2019-03-05T00:18:42.017Z,97483.59
2019-03-05T00:21:12.042Z,97482.02
2019-03-05T00:23:50.309Z,97476.82
2019-03-05T00:26:23.568Z,97475.80
2019-03-05T00:29:38.800Z,97484.98
2019-03-05T00:32:09.357Z,97489.69
2019-03-05T00:35:11.400Z,97487.89
2019-03-05T00:38:06.469Z,97494.91
2019-03-05T00:41:00.799Z,97493.48
2019-03-05T00:43:55.983Z,97489.66
2019-03-05T00:46:52.434Z,97490.41
2019-03-05T00:49:42.469Z,97490.09
2019-03-05T00:52:36.054Z,97489.56
2019-03-05T00:55:43.124Z,97475.42
2019-03-05T00:58:46.039Z,97467.91
2019-03-05T01:01:37.923Z,97459.95
2019-03-05T01:04:45.073Z,97458.77
2019-03-05T01:07:15.259Z,97460.81
2019-03-05T01:09:45.557Z,97465.03
2019-03-05T01:12:16.502Z,97469.76
2019-03-05T01:14:46.675Z,97462.95
2019-03-05T01:17:17.187Z,97452.73
2019-03-05T01:19:47.480Z,97438.50
2019-03-05T01:22:18.025Z,97438.50
2019-03-05T01:24:48.718Z,97434.58
2019-03-05T01:27:19.120Z,97442.25
2019-03-05T01:29:49.473Z,97441.79
2019-03-05T01:32:35.152Z,97432.81
2019-03-05T01:35:24.926Z,97418.13
2019-03-05T01:37:55.182Z,97417.23
2019-03-05T01:40:34.715Z,97427.77
2019-03-05T01:43:04.917Z,97422.80
2019-03-05T01:45:35.284Z,97419.02
2019-03-05T01:48:05.898Z,97419.58
2019-03-05T01:50:36.249Z,97420.18
2019-03-05T01:53:06.576Z,97424.91
2019-03-05T01:55:36.875Z,97427.65
2019-03-05T01:58:07.141Z,97422.77
2019-03-05T02:00:38.631Z,97428.43
2019-03-05T02:03:09.214Z,97426.64
2019-03-05T02:05:39.528Z,97427.59
2019-03-05T02:08:09.934Z,97423.20
2019-03-05T02:10:40.599Z,97419.36
2019-03-05T02:13:10.923Z,97413.05
2019-03-05T02:15:41.189Z,97416.45
2019-03-05T02:18:12.889Z,97418.10
2019-03-05T02:20:43.328Z,97409.84
2019-03-05T02:23:21.190Z,97414.80
2019-03-05T02:26:29.628Z,97418.97
2019-03-05T02:29:34.156Z,97423.08
2019-03-05T02:32:47.388Z,97419.70
2019-03-05T02:36:00.217Z,97427.84
2019-03-05T02:39:07.745Z,97427.00
2019-03-05T02:42:03.106Z,97427.59
2019-03-05T02:44:58.932Z,97424.77
2019-03-05T02:48:04.111Z,97419.48
2019-03-05T02:51:01.916Z,97421.81
2019-03-05T02:53:44.743Z,97426.41
2019-03-05T02:56:38.120Z,97422.95
2019-03-05T02:59:06.077Z,97407.39
2019-03-05T03:01:51.965Z,97402.42
2019-03-05T03:04:24.040Z,97400.52
2019-03-05T03:06:54.402Z,97389.59
2019-03-05T03:10:08.312Z,97391.41
2019-03-05T03:12:38.989Z,97393.63
2019-03-05T03:15:12.495Z,97391.52
2019-03-05T03:17:42.939Z,97381.80
2019-03-05T03:20:15.020Z,97383.45
2019-03-05T03:22:45.480Z,97398.69
2019-03-05T03:25:23.647Z,97395.73
2019-03-05T03:27:53.955Z,97409.79
2019-03-05T03:30:25.331Z,97406.30
2019-03-05T03:32:55.746Z,97412.84
2019-03-05T03:35:26.224Z,97425.43
2019-03-05T03:37:56.742Z,97417.23
2019-03-05T03:40:27.061Z,97409.56
2019-03-05T03:42:57.542Z,97399.00
2019-03-05T03:45:28.476Z,97390.19
2019-03-05T03:47:58.947Z,97395.50
2019-03-05T03:50:28.938Z,97384.28
2019-03-05T03:52:59.403Z,97377.62
2019-03-05T03:55:30.024Z,97376.17
2019-03-05T03:58:00.541Z,97380.12
2019-03-05T04:00:30.803Z,97379.31
2019-03-05T04:03:01.122Z,97370.41
2019-03-05T04:05:31.427Z,97386.01
2019-03-05T04:08:01.722Z,97386.98
2019-03-05T04:10:31.917Z,97389.44
2019-03-05T04:13:02.215Z,97393.05
2019-03-05T04:15:32.825Z,97408.63
2019-03-05T04:18:03.002Z,97424.44
2019-03-05T04:20:41.786Z,97421.78
2019-03-05T04:23:11.956Z,97422.78
2019-03-05T04:25:42.264Z,97421.55
2019-03-05T04:28:12.470Z,97423.76
2019-03-05T04:30:42.836Z,97423.11
2019-03-05T04:33:13.132Z,97425.06
2019-03-05T04:35:43.581Z,97432.52
2019-03-05T04:38:13.965Z,97438.29
2019-03-05T04:40:44.287Z,97445.64
2019-03-05T04:43:14.675Z,97444.08
2019-03-05T04:46:09.425Z,97442.38
2019-03-05T04:48:39.847Z,97439.17
2019-03-05T04:51:17.159Z,97431.78
2019-03-05T04:53:47.548Z,97424.91
2019-03-05T04:56:17.969Z,97422.19
2019-03-05T04:58:48.259Z,97426.56
2019-03-05T05:01:18.411Z,97417.78
2019-03-05T05:03:48.767Z,97421.50
2019-03-05T05:06:19.215Z,97444.22
2019-03-05T05:08:49.554Z,97442.66
2019-03-05T05:11:19.459Z,97437.98
2019-03-05T05:13:49.811Z,97451.36
2019-03-05T05:16:20.070Z,97440.52
2019-03-05T05:18:50.565Z,97442.78
2019-03-05T05:21:20.825Z,97451.03
2019-03-05T05:23:51.250Z,97460.48
2019-03-05T05:26:21.672Z,97464.27
2019-03-05T05:28:52.118Z,97465.44
2019-03-05T05:31:22.153Z,97468.42
2019-03-05T05:33:52.538Z,97477.59
2019-03-05T05:36:22.975Z,97479.86
2019-03-05T05:38:53.199Z,97473.69
2019-03-05T05:41:22.917Z,97488.48
2019-03-05T05:43:53.238Z,97485.62
2019-03-05T05:46:23.678Z,97492.11
2019-03-05T05:48:53.739Z,97496.30
2019-03-05T05:51:23.773Z,97491.47
2019-03-05T05:53:54.098Z,97502.67
2019-03-05T05:56:24.248Z,97503.80
2019-03-05T05:58:54.889Z,97507.50
2019-03-05T06:01:25.060Z,97518.99
2019-03-05T06:03:55.362Z,97518.81
2019-03-05T06:06:25.639Z,97517.80
2019-03-05T06:08:55.870Z,97516.47
2019-03-05T06:11:26.482Z,97516.34
2019-03-05T06:13:56.721Z,97513.38
2019-03-05T06:16:26.757Z,97513.06
2019-03-05T06:18:57.106Z,97517.24
2019-03-05T06:21:27.622Z,97503.02
2019-03-05T06:23:57.930Z,97488.95
2019-03-05T06:26:28.405Z,97498.85
2019-03-05T06:28:58.970Z,97509.63
2019-03-05T06:31:29.575Z,97505.78
2019-03-05T06:33:59.638Z,97498.48
2019-03-05T06:36:45.039Z,97504.19
2019-03-05T06:39:15.078Z,97509.88
2019-03-05T06:41:45.398Z,97508.89
2019-03-05T06:44:15.834Z,97514.66
2019-03-05T06:46:46.138Z,97502.86
2019-03-05T06:49:16.464Z,97511.10
2019-03-05T06:51:46.815Z,97513.27
2019-03-05T06:54:17.261Z,97516.28
2019-03-05T06:56:47.797Z,97515.87
2019-03-05T06:59:18.095Z,97513.60
2019-03-05T07:01:48.609Z,97514.91
2019-03-05T07:04:19.076Z,97519.61
2019-03-05T07:06:59.278Z,97512.27
2019-03-05T07:10:04.381Z,97509.74
2019-03-05T07:12:56.526Z,97519.52
2019-03-05T07:15:56.668Z,97517.09
2019-03-05T07:18:33.207Z,97511.41
2019-03-05T07:21:49.132Z,97514.14
2019-03-05T07:24:41.817Z,97518.52
2019-03-05T07:27:12.418Z,97515.79
2019-03-05T07:29:43.152Z,97518.60
2019-03-05T07:32:13.415Z,97520.32
2019-03-05T07:34:46.067Z,97522.94
2019-03-05T07:37:16.326Z,97520.55
2019-03-05T07:39:46.769Z,97520.62
2019-03-05T07:42:17.337Z,97520.14
2019-03-05T07:44:47.579Z,97523.67
2019-03-05T07:47:17.444Z,97524.89
2019-03-05T07:49:47.385Z,97520.03
2019-03-05T07:52:17.564Z,97517.97
2019-03-05T07:54:47.591Z,97517.42
2019-03-05T07:57:17.927Z,97519.08
2019-03-05T07:59:48.329Z,97522.92
2019-03-05T08:02:18.235Z,97519.30
2019-03-05T08:04:48.190Z,97524.42
2019-03-05T08:07:18.647Z,97525.75
2019-03-05T08:09:49.077Z,97529.49
2019-03-05T08:13:02.352Z,97524.45
2019-03-05T08:16:02.339Z,97534.72
2019-03-05T08:18:28.800Z,97534.88
2019-03-05T08:20:58.771Z,97536.47
2019-03-05T08:23:28.742Z,97533.80
2019-03-05T08:25:58.915Z,97534.68
2019-03-05T08:28:29.184Z,97538.91
2019-03-05T08:30:59.094Z,97535.94
2019-03-05T08:33:29.517Z,97520.72
2019-03-05T08:35:59.711Z,97513.39
2019-03-05T08:38:29.875Z,97512.27
2019-03-05T08:40:59.979Z,97515.81
2019-03-05T08:43:30.403Z,97519.16
2019-03-05T08:46:00.824Z,97517.09
2019-03-05T08:48:30.758Z,97508.14
2019-03-05T08:51:00.660Z,97510.38
2019-03-05T08:53:31.173Z,97513.19
2019-03-05T08:56:01.530Z,97507.81
2019-03-05T08:58:31.714Z,97516.47
2019-03-05T09:01:01.837Z,97508.20
2019-03-05T09:03:32.274Z,97513.17
2019-03-05T09:06:02.754Z,97515.20
2019-03-05T09:08:33.111Z,97514.06
2019-03-05T09:11:02.817Z,97526.70
2019-03-05T09:13:33.324Z,97524.56
2019-03-05T09:16:03.683Z,97531.91
2019-03-05T09:18:33.651Z,97528.62
2019-03-05T09:21:03.890Z,97527.86
2019-03-05T09:23:34.411Z,97525.05
2019-03-05T09:26:04.757Z,97521.84
2019-03-05T09:28:34.632Z,97513.75
2019-03-05T09:31:04.844Z,97508.96
2019-03-05T09:33:35.197Z,97505.49
2019-03-05T09:36:05.852Z,97505.73
2019-03-05T09:38:36.122Z,97507.91
2019-03-05T09:41:05.799Z,97511.02
2019-03-05T09:43:36.088Z,97517.38
2019-03-05T09:46:06.552Z,97515.78
2019-03-05T09:48:36.875Z,97511.83
2019-03-05T09:51:07.239Z,97518.02
2019-03-05T09:53:37.410Z,97519.89
2019-03-05T09:56:07.510Z,97504.49
2019-03-05T09:58:37.890Z,97507.47
2019-03-05T10:01:08.493Z,97509.98
2019-03-05T10:03:38.181Z,97510.99
2019-03-05T10:06:08.268Z,97507.88
2019-03-05T10:08:38.435Z,97516.13
2019-03-05T10:11:08.686Z,97515.13
2019-03-05T10:13:38.915Z,97515.91
2019-03-05T10:16:09.490Z,97517.31
2019-03-05T10:18:40.118Z,97511.98
2019-03-05T10:21:11.947Z,97507.85
2019-03-05T10:23:42.397Z,97498.84
2019-03-05T10:26:13.035Z,97500.73
2019-03-05T10:28:43.629Z,97498.18
2019-03-05T10:31:14.001Z,97493.40
2019-03-05T10:33:44.550Z,97497.13
2019-03-05T10:36:14.896Z,97490.36
2019-03-05T10:38:56.584Z,97486.55
2019-03-05T10:41:26.309Z,97482.36
2019-03-05T10:43:56.622Z,97484.80
2019-03-05T10:46:27.203Z,97480.32
2019-03-05T10:48:57.594Z,97477.00
2019-03-05T10:51:28.656Z,97472.13
2019-03-05T10:54:02.312Z,97463.79
2019-03-05T10:56:32.466Z,97459.08
2019-03-05T10:59:02.342Z,97458.94
2019-03-05T11:01:32.305Z,97455.01
2019-03-05T11:04:02.948Z,97443.75
2019-03-05T11:06:33.549Z,97442.71
2019-03-05T11:09:04.429Z,97446.75
2019-03-05T11:11:34.608Z,97435.36
2019-03-05T11:14:04.970Z,97438.23
2019-03-05T11:16:35.182Z,97430.77
2019-03-05T11:19:06.199Z,97428.38
2019-03-05T11:21:36.609Z,97414.03
2019-03-05T11:24:07.551Z,97415.95
2019-03-05T11:26:37.850Z,97407.21
2019-03-05T11:29:08.327Z,97399.64
2019-03-05T11:31:38.625Z,97394.56
2019-03-05T11:34:09.275Z,97393.86
2019-03-05T11:36:39.421Z,97394.09
2019-03-05T11:39:09.938Z,97386.46
2019-03-05T11:41:40.249Z,97385.45
2019-03-05T11:44:10.560Z,97383.95
2019-03-05T11:46:40.807Z,97377.57
2019-03-05T11:49:11.285Z,97371.83
2019-03-05T11:51:41.787Z,97367.05
2019-03-05T11:54:12.164Z,97368.55
2019-03-05T11:56:42.577Z,97369.61
2019-03-05T11:59:12.861Z,97355.45
2019-03-05T12:01:46.189Z,97357.05
2019-03-05T12:04:16.512Z,97354.79
2019-03-05T12:06:46.893Z,97364.01
2019-03-05T12:09:17.341Z,97361.15
2019-03-05T12:11:47.926Z,97364.47
2019-03-05T12:14:18.513Z,97356.41
2019-03-05T12:16:49.007Z,97360.80
2019-03-05T12:19:19.384Z,97356.41
2019-03-05T12:21:49.706Z,97361.03
2019-03-05T12:24:23.913Z,97353.56
2019-03-05T12:26:51.493Z,97352.11
2019-03-05T12:29:21.652Z,97348.28
2019-03-05T12:31:51.969Z,97350.13
2019-03-05T12:34:22.358Z,97350.47
2019-03-05T12:36:52.688Z,97351.98
2019-03-05T12:39:23.745Z,97351.44
2019-03-05T12:41:54.022Z,97352.55
2019-03-05T12:44:24.522Z,97345.52
2019-03-05T12:46:55.076Z,97339.69
2019-03-05T12:49:24.901Z,97334.88
2019-03-05T12:51:55.127Z,97335.58
2019-03-05T12:54:25.607Z,97338.56
2019-03-05T12:56:55.500Z,97331.06
2019-03-05T12:59:25.636Z,97338.68
2019-03-05T13:01:55.725Z,97335.95
2019-03-05T13:04:26.047Z,97344.22
2019-03-05T13:06:56.510Z,97343.86
2019-03-05T13:09:26.704Z,97338.22
2019-03-05T13:11:56.933Z,97340.59
2019-03-05T13:14:26.943Z,97332.84
2019-03-05T13:16:57.126Z,97333.74
2019-03-05T13:19:27.110Z,97331.11
2019-03-05T13:21:57.458Z,97330.73
2019-03-05T13:24:27.754Z,97334.89
2019-03-05T13:26:57.839Z,97334.16
2019-03-05T13:29:28.063Z,97326.71
2019-03-05T13:31:57.869Z,97327.09
2019-03-05T13:34:28.218Z,97332.25
2019-03-05T13:37:00.796Z,97332.07
2019-03-05T13:39:30.642Z,97333.94
2019-03-05T13:42:01.165Z,97328.07
2019-03-05T13:44:35.713Z,97331.02
2019-03-05T13:47:08.538Z,97326.78
2019-03-05T13:49:58.903Z,97323.06
2019-03-05T13:52:59.972Z,97329.70
2019-03-05T13:56:12.043Z,97327.81
2019-03-05T13:59:11.646Z,97329.51
2019-03-05T14:01:42.483Z,97317.84
2019-03-05T14:04:16.951Z,97317.87
2019-03-05T14:07:22.510Z,97314.47
2019-03-05T14:09:53.749Z,97316.38
2019-03-05T14:12:24.073Z,97321.34
2019-03-05T14:14:54.498Z,97319.13
2019-03-05T14:17:30.140Z,97327.12
2019-03-05T14:20:00.549Z,97329.89
2019-03-05T14:22:31.032Z,97335.90
2019-03-05T14:25:02.938Z,97342.20
2019-03-05T14:27:33.826Z,97343.36
2019-03-05T14:30:05.100Z,97344.48
2019-03-05T14:32:35.549Z,97342.78
2019-03-05T14:35:10.798Z,97342.34
2019-03-05T14:37:41.674Z,97340.12
2019-03-05T14:40:23.990Z,97346.52
2019-03-05T14:42:47.941Z,97346.14
2019-03-05T14:45:22.202Z,97350.30
2019-03-05T14:47:54.046Z,97346.75
2019-03-05T14:50:24.742Z,97347.78
2019-03-05T14:52:55.230Z,97359.98
2019-03-05T14:55:29.996Z,97363.11
2019-03-05T14:58:00.565Z,97359.09
2019-03-05T15:00:30.911Z,97355.02
2019-03-05T15:03:01.668Z,97355.70
2019-03-05T15:05:32.172Z,97351.09
2019-03-05T15:08:02.726Z,97361.00
2019-03-05T15:10:35.919Z,97360.05
2019-03-05T15:13:15.259Z,97358.45
2019-03-05T15:15:38.767Z,97371.94
2019-03-05T15:18:09.450Z,97368.92
2019-03-05T15:20:40.001Z,97368.22
2019-03-05T15:23:10.711Z,97372.02
2019-03-05T15:25:41.401Z,97374.74
2019-03-05T15:28:11.754Z,97369.28
2019-03-05T15:30:42.294Z,97370.05
2019-03-05T15:33:12.986Z,97374.52
2019-03-05T15:35:43.554Z,97368.11
2019-03-05T15:38:16.174Z,97370.02
2019-03-05T15:40:46.764Z,97376.44
2019-03-05T15:43:17.493Z,97387.51
2019-03-05T15:45:48.123Z,97384.20
2019-03-05T15:48:18.568Z,97384.03
2019-03-05T15:50:49.272Z,97390.75
2019-03-05T15:53:19.915Z,97390.48
2019-03-05T15:55:50.331Z,97387.61
2019-03-05T15:58:20.880Z,97387.15
2019-03-05T16:00:51.903Z,97391.88
2019-03-05T16:03:22.331Z,97391.27
2019-03-05T16:05:53.832Z,97385.81
2019-03-05T16:08:26.189Z,97386.69
2019-03-05T16:10:58.671Z,97389.38
2019-03-05T16:13:29.175Z,97393.08
2019-03-05T16:15:59.587Z,97402.58
2019-03-05T16:18:30.291Z,97403.04
2019-03-05T16:21:02.588Z,97405.73
2019-03-05T16:23:34.037Z,97413.01
2019-03-05T16:26:04.559Z,97413.16
2019-03-05T16:28:35.022Z,97413.84
2019-03-05T16:31:27.515Z,97415.14
2019-03-05T16:34:14.281Z,97431.84
2019-03-05T16:37:21.187Z,97431.66
2019-03-05T16:40:19.273Z,97441.94
2019-03-05T16:43:07.611Z,97436.61
2019-03-05T16:45:55.775Z,97438.84
2019-03-05T16:48:45.550Z,97436.02
2019-03-05T16:51:37.502Z,97426.38
2019-03-05T16:54:26.959Z,97428.87
2019-03-05T16:57:22.378Z,97435.64
2019-03-05T17:00:10.463Z,97442.78
2019-03-05T17:02:58.761Z,97446.47
2019-03-05T17:05:48.018Z,97455.28
2019-03-05T17:08:35.534Z,97466.54
2019-03-05T17:11:28.307Z,97469.75
2019-03-05T17:13:58.851Z,97482.42
2019-03-05T17:16:29.437Z,97486.30
2019-03-05T17:18:59.898Z,97489.05
2019-03-05T17:21:30.409Z,97497.55
2019-03-05T17:24:01.668Z,97507.02
2019-03-05T17:26:33.716Z,97516.18
2019-03-05T17:29:04.852Z,97515.98
2019-03-05T17:31:35.366Z,97530.09
2019-03-05T17:34:05.950Z,97536.70
2019-03-05T17:36:36.424Z,97536.97
2019-03-05T17:39:11.377Z,97536.04
2019-03-05T17:41:44.387Z,97527.89
2019-03-05T17:44:15.261Z,97531.67
2019-03-05T17:46:46.565Z,97523.81
2019-03-05T17:49:17.087Z,97533.66
2019-03-05T17:51:49.385Z,97540.47
2019-03-05T17:54:21.353Z,97542.77
2019-03-05T17:56:52.097Z,97537.83
2019-03-05T17:59:24.373Z,97534.15
2019-03-05T18:01:54.988Z,97532.16
2019-03-05T18:04:25.816Z,97532.14
2019-03-05T18:06:56.514Z,97541.39
2019-03-05T18:09:28.373Z,97547.34
2019-03-05T18:12:01.530Z,97550.95
2019-03-05T18:14:33.092Z,97554.89
2019-03-05T18:17:03.634Z,97554.66
2019-03-05T18:19:34.443Z,97555.47
2019-03-05T18:22:05.289Z,97558.00
2019-03-05T18:24:36.740Z,97557.17
2019-03-05T18:27:07.482Z,97557.17
2019-03-05T18:29:38.733Z,97552.92
2019-03-05T18:32:12.356Z,97556.42
2019-03-05T18:34:43.045Z,97559.69
2019-03-05T18:37:13.464Z,97554.77
2019-03-05T18:39:46.005Z,97556.66
2019-03-05T18:42:16.796Z,97557.31
2019-03-05T18:44:48.815Z,97563.38
2019-03-05T18:47:19.615Z,97568.31
2019-03-05T18:49:50.271Z,97567.27
2019-03-05T18:52:21.003Z,97573.52
2019-03-05T18:54:52.964Z,97581.45
2019-03-05T18:57:23.797Z,97575.77
2019-03-05T18:59:54.443Z,97581.80
2019-03-05T19:02:25.179Z,97595.31
2019-03-05T19:04:55.970Z,97597.37
2019-03-05T19:07:26.798Z,97598.88
2019-03-05T19:09:57.222Z,97611.67
2019-03-05T19:12:30.314Z,97612.87
2019-03-05T19:15:04.138Z,97619.34
2019-03-05T19:17:37.488Z,97616.27
2019-03-05T19:20:11.743Z,97615.09
2019-03-05T19:22:43.391Z,97613.45
2019-03-05T19:25:20.441Z,97615.09
2019-03-05T19:27:53.452Z,97618.46
2019-03-05T19:30:28.813Z,97610.34
2019-03-05T19:32:59.526Z,97613.30
2019-03-05T19:35:29.999Z,97614.36
2019-03-05T19:38:00.610Z,97613.53
2019-03-05T19:40:33.876Z,97619.73
2019-03-05T19:43:06.872Z,97618.59
2019-03-05T19:45:37.475Z,97621.69
2019-03-05T19:48:07.998Z,97630.11
2019-03-05T19:50:38.543Z,97630.57
2019-03-05T19:53:09.223Z,97634.91
2019-03-05T19:55:39.995Z,97639.45
2019-03-05T19:58:11.430Z,97647.67
2019-03-05T20:01:12.482Z,97644.47
2019-03-05T20:03:43.263Z,97654.03
2019-03-05T20:06:14.993Z,97664.62
2019-03-05T20:08:47.925Z,97667.02
2019-03-05T20:11:18.609Z,97665.49
2019-03-05T20:13:49.150Z,97665.84
2019-03-05T20:16:20.797Z,97661.92
2019-03-05T20:18:51.289Z,97680.22
2019-03-05T20:21:21.848Z,97678.82
2019-03-05T20:23:52.595Z,97681.10
2019-03-05T20:26:23.140Z,97685.44
2019-03-05T20:28:53.724Z,97684.89
2019-03-05T20:31:27.258Z,97688.77
2019-03-05T20:33:59.804Z,97697.94
2019-03-05T20:36:30.661Z,97706.16
2019-03-05T20:39:01.375Z,97713.09
2019-03-05T20:41:31.952Z,97720.14
2019-03-05T20:44:04.912Z,97733.80
2019-03-05T20:46:35.470Z,97729.92
2019-03-05T20:49:06.303Z,97735.07
2019-03-05T20:51:36.945Z,97739.16
2019-03-05T20:54:07.605Z,97739.77
2019-03-05T20:56:40.659Z,97747.48
2019-03-05T20:59:11.130Z,97751.52
2019-03-05T21:01:41.934Z,97752.36
2019-03-05T21:04:12.606Z,97756.23
2019-03-05T21:06:43.425Z,97762.38
2019-03-05T21:09:24.852Z,97768.09
2019-03-05T21:11:55.667Z,97772.44
2019-03-05T21:14:27.470Z,97769.11
2019-03-05T21:16:58.398Z,97768.41
2019-03-05T21:19:28.966Z,97771.18
2019-03-05T21:21:59.240Z,97773.21
2019-03-05T21:24:29.961Z,97769.72
2019-03-05T21:27:02.018Z,97775.87
2019-03-05T21:29:34.057Z,97777.72
2019-03-05T21:32:04.892Z,97778.05
2019-03-05T21:34:35.919Z,97774.23
2019-03-05T21:37:06.746Z,97773.77
2019-03-05T21:39:37.350Z,97769.67
2019-03-05T21:42:09.784Z,97776.48
2019-03-05T21:44:40.752Z,97784.80
2019-03-05T21:47:11.494Z,97776.32
2019-03-05T21:49:42.234Z,97778.95
2019-03-05T21:52:12.653Z,97785.06
2019-03-05T21:54:43.153Z,97790.19
2019-03-05T21:57:13.936Z,97790.21
2019-03-05T21:59:44.625Z,97789.99
2019-03-05T22:02:15.426Z,97785.30
2019-03-05T22:04:45.855Z,97789.13
2019-03-05T22:07:16.584Z,97784.54
2019-03-05T22:09:48.004Z,97774.30
2019-03-05T22:12:18.408Z,97775.72
2019-03-05T22:14:48.911Z,97774.20
2019-03-05T22:17:19.530Z,97777.40
2019-03-05T22:19:50.049Z,97780.14
2019-03-05T22:22:20.525Z,97780.00
2019-03-05T22:24:52.368Z,97786.62
2019-03-05T22:27:25.194Z,97800.34
2019-03-05T22:29:55.664Z,97808.51
2019-03-05T22:32:26.426Z,97828.04
2019-03-05T22:35:00.303Z,97827.11
2019-03-05T22:37:30.856Z,97832.08
2019-03-05T22:40:01.458Z,97834.35
2019-03-05T22:42:32.171Z,97843.44
2019-03-05T22:45:02.923Z,97843.17
2019-03-05T22:47:33.662Z,97846.07
2019-03-05T22:50:04.614Z,97850.93
2019-03-05T22:52:36.458Z,97856.88
2019-03-05T22:55:08.612Z,97855.48
2019-03-05T22:57:42.449Z,97854.72
2019-03-05T23:00:19.901Z,97861.07
2019-03-05T23:02:51.019Z,97868.30
2019-03-05T23:05:21.633Z,97877.59
2019-03-05T23:07:52.339Z,97881.87
2019-03-05T23:10:23.327Z,97874.17
2019-03-05T23:12:55.664Z,97887.59
2019-03-05T23:15:26.654Z,97894.70
2019-03-05T23:17:57.278Z,97907.77
2019-03-05T23:20:30.000Z,97923.10
2019-03-05T23:23:00.504Z,97938.26
2019-03-05T23:25:31.318Z,97945.43
2019-03-05T23:28:01.781Z,97956.05
2019-03-05T23:30:32.544Z,97972.71
2019-03-05T23:33:03.028Z,97979.37
2019-03-05T23:35:33.598Z,97986.98
2019-03-05T23:38:06.323Z,98000.59
2019-03-05T23:40:36.870Z,98004.59
2019-03-05T23:43:07.797Z,98020.23
2019-03-05T23:45:39.692Z,98019.91
2019-03-05T23:48:10.575Z,98028.86
2019-03-05T23:50:42.735Z,98021.48
2019-03-05T23:53:13.081Z,98038.04
2019-03-05T23:55:43.944Z,98028.35
2019-03-05T23:58:14.853Z,98040.63
